sensor_id;sensor_type;location;lat;lon;timestamp;pressure;altitude;pressure_sealevel;temperature;humidity
46598;BME280;32318;48.858;8.252;2023-12-29T00:04:50;100380.22;;;9.53;84.29
46598;BME280;32318;48.858;8.252;2023-12-29T00:12:50;100385.22;;;9.56;83.67
46598;BME280;32318;48.858;8.252;2023-12-29T00:20:51;100392.88;;;9.51;83.85
46598;BME280;32318;48.858;8.252;2023-12-29T00:28:51;100394.00;;;9.49;84.15
46598;BME280;32318;48.858;8.252;2023-12-29T00:36:51;100380.81;;;9.47;84.15
46598;BME280;32318;48.858;8.252;2023-12-29T00:44:51;100372.13;;;9.45;84.35
46598;BME280;32318;48.858;8.252;2023-12-29T00:52:52;100371.78;;;9.40;84.49
46598;BME280;32318;48.858;8.252;2023-12-29T01:00:52;100367.34;;;9.31;84.82
46598;BME280;32318;48.858;8.252;2023-12-29T01:08:53;100359.28;;;9.22;85.25
46598;BME280;32318;48.858;8.252;2023-12-29T01:16:56;100353.44;;;9.19;85.34
46598;BME280;32318;48.858;8.252;2023-12-29T01:24:59;100340.56;;;9.14;85.31
46598;BME280;32318;48.858;8.252;2023-12-29T01:32:59;100355.19;;;9.10;85.56
46598;BME280;32318;48.858;8.252;2023-12-29T01:41:00;100351.84;;;9.08;85.78
46598;BME280;32318;48.858;8.252;2023-12-29T01:49:01;100349.72;;;9.12;85.39
46598;BME280;32318;48.858;8.252;2023-12-29T01:57:02;100348.72;;;9.13;85.07
46598;BME280;32318;48.858;8.252;2023-12-29T02:05:02;100345.19;;;9.12;85.49
46598;BME280;32318;48.858;8.252;2023-12-29T02:13:03;100329.22;;;9.12;85.14
46598;BME280;32318;48.858;8.252;2023-12-29T02:21:04;100321.56;;;9.09;85.01
46598;BME280;32318;48.858;8.252;2023-12-29T02:29:07;100314.22;;;9.11;85.33
46598;BME280;32318;48.858;8.252;2023-12-29T02:37:10;100317.06;;;9.09;85.91
46598;BME280;32318;48.858;8.252;2023-12-29T02:45:11;100281.59;;;9.09;86.55
46598;BME280;32318;48.858;8.252;2023-12-29T02:53:12;100292.72;;;9.04;87.00
46598;BME280;32318;48.858;8.252;2023-12-29T03:01:12;100296.13;;;8.97;87.62
46598;BME280;32318;48.858;8.252;2023-12-29T03:18:09;100300.09;;;8.92;88.18
46598;BME280;32318;48.858;8.252;2023-12-29T03:26:10;100298.94;;;8.95;87.92
46598;BME280;32318;48.858;8.252;2023-12-29T03:34:11;100272.09;;;8.88;89.10
46598;BME280;32318;48.858;8.252;2023-12-29T03:42:11;100280.00;;;8.80;89.94
46598;BME280;32318;48.858;8.252;2023-12-29T03:50:12;100277.50;;;8.78;90.68
46598;BME280;32318;48.858;8.252;2023-12-29T03:58:12;100271.19;;;8.79;90.58
46598;BME280;32318;48.858;8.252;2023-12-29T04:06:12;100258.41;;;8.83;89.68
46598;BME280;32318;48.858;8.252;2023-12-29T04:14:13;100246.28;;;8.89;89.44
46598;BME280;32318;48.858;8.252;2023-12-29T04:22:13;100261.44;;;8.88;90.20
46598;BME280;32318;48.858;8.252;2023-12-29T04:30:14;100265.03;;;8.97;90.05
46598;BME280;32318;48.858;8.252;2023-12-29T04:38:14;100279.00;;;8.99;90.39
46598;BME280;32318;48.858;8.252;2023-12-29T04:46:15;100288.50;;;9.02;90.55
46598;BME280;32318;48.858;8.252;2023-12-29T04:54:16;100292.56;;;9.06;90.72
46598;BME280;32318;48.858;8.252;2023-12-29T05:02:16;100294.91;;;9.09;90.87
46598;BME280;32318;48.858;8.252;2023-12-29T05:10:16;100281.75;;;9.07;90.93
46598;BME280;32318;48.858;8.252;2023-12-29T05:18:17;100274.72;;;9.06;90.94
46598;BME280;32318;48.858;8.252;2023-12-29T05:26:17;100289.00;;;8.97;91.33
46598;BME280;32318;48.858;8.252;2023-12-29T05:34:18;100279.09;;;8.89;91.95
46598;BME280;32318;48.858;8.252;2023-12-29T05:42:18;100261.72;;;8.85;92.73
46598;BME280;32318;48.858;8.252;2023-12-29T05:50:18;100263.88;;;8.82;92.55
46598;BME280;32318;48.858;8.252;2023-12-29T05:58:19;100268.38;;;8.81;92.44
46598;BME280;32318;48.858;8.252;2023-12-29T06:06:19;100269.34;;;8.80;93.26
46598;BME280;32318;48.858;8.252;2023-12-29T06:14:20;100270.75;;;8.84;93.24
46598;BME280;32318;48.858;8.252;2023-12-29T06:22:20;100266.75;;;8.88;93.15
46598;BME280;32318;48.858;8.252;2023-12-29T06:30:21;100276.44;;;8.89;93.35
46598;BME280;32318;48.858;8.252;2023-12-29T06:38:21;100270.81;;;8.92;93.21
46598;BME280;32318;48.858;8.252;2023-12-29T06:46:22;100269.78;;;8.93;92.68
46598;BME280;32318;48.858;8.252;2023-12-29T06:54:22;100251.56;;;8.99;93.00
46598;BME280;32318;48.858;8.252;2023-12-29T07:02:22;100255.72;;;9.01;92.24
46598;BME280;32318;48.858;8.252;2023-12-29T07:10:23;100259.91;;;9.04;92.21
46598;BME280;32318;48.858;8.252;2023-12-29T07:18:23;100266.75;;;9.06;92.34
46598;BME280;32318;48.858;8.252;2023-12-29T07:26:24;100272.75;;;9.08;92.21
46598;BME280;32318;48.858;8.252;2023-12-29T07:34:25;100273.00;;;9.15;91.48
46598;BME280;32318;48.858;8.252;2023-12-29T07:42:25;100270.31;;;9.15;91.85
46598;BME280;32318;48.858;8.252;2023-12-29T07:50:25;100264.38;;;9.21;91.17
46598;BME280;32318;48.858;8.252;2023-12-29T07:58:26;100277.41;;;9.24;91.41
46598;BME280;32318;48.858;8.252;2023-12-29T08:06:26;100280.75;;;9.26;91.32
46598;BME280;32318;48.858;8.252;2023-12-29T08:14:29;100290.41;;;9.28;91.27
46598;BME280;32318;48.858;8.252;2023-12-29T08:22:30;100291.75;;;9.32;90.96
46598;BME280;32318;48.858;8.252;2023-12-29T08:30:34;100303.94;;;9.34;90.94
46598;BME280;32318;48.858;8.252;2023-12-29T08:38:36;100320.63;;;9.36;91.14
46598;BME280;32318;48.858;8.252;2023-12-29T08:46:36;100313.66;;;9.44;90.57
46598;BME280;32318;48.858;8.252;2023-12-29T08:54:36;100310.25;;;9.51;90.54
46598;BME280;32318;48.858;8.252;2023-12-29T09:02:37;100313.25;;;9.56;90.15
46598;BME280;32318;48.858;8.252;2023-12-29T09:10:37;100309.78;;;9.56;90.30
46598;BME280;32318;48.858;8.252;2023-12-29T09:18:38;100312.44;;;9.56;90.93
46598;BME280;32318;48.858;8.252;2023-12-29T09:26:38;100319.28;;;9.58;91.07
46598;BME280;32318;48.858;8.252;2023-12-29T09:34:39;100322.53;;;9.70;90.94
46598;BME280;32318;48.858;8.252;2023-12-29T09:42:40;100332.59;;;9.85;90.55
46598;BME280;32318;48.858;8.252;2023-12-29T09:50:43;100331.66;;;9.94;90.02
46598;BME280;32318;48.858;8.252;2023-12-29T09:58:47;100330.41;;;10.07;89.38
46598;BME280;32318;48.858;8.252;2023-12-29T10:06:50;100321.28;;;10.17;89.04
46598;BME280;32318;48.858;8.252;2023-12-29T10:15:10;100311.03;;;10.31;88.07
46598;BME280;32318;48.858;8.252;2023-12-29T10:23:28;100293.56;;;10.45;86.98
46598;BME280;32318;48.858;8.252;2023-12-29T10:31:32;100283.09;;;10.60;86.19
46598;BME280;32318;48.858;8.252;2023-12-29T10:39:32;100271.94;;;10.73;84.84
46598;BME280;32318;48.858;8.252;2023-12-29T10:47:32;100261.13;;;10.82;84.23
46598;BME280;32318;48.858;8.252;2023-12-29T10:55:33;100250.47;;;10.99;83.57
46598;BME280;32318;48.858;8.252;2023-12-29T11:03:34;100246.09;;;11.06;82.20
46598;BME280;32318;48.858;8.252;2023-12-29T11:11:34;100242.44;;;11.07;82.24
46598;BME280;32318;48.858;8.252;2023-12-29T11:19:36;100243.44;;;10.90;82.05
46598;BME280;32318;48.858;8.252;2023-12-29T11:27:37;100241.75;;;10.80;82.26
46598;BME280;32318;48.858;8.252;2023-12-29T11:35:59;100236.59;;;10.87;82.55
46598;BME280;32318;48.858;8.252;2023-12-29T11:44:01;100228.41;;;10.97;82.69
46598;BME280;32318;48.858;8.252;2023-12-29T11:52:01;100222.88;;;11.15;82.24
46598;BME280;32318;48.858;8.252;2023-12-29T12:00:02;100218.88;;;11.19;82.03
46598;BME280;32318;48.858;8.252;2023-12-29T12:08:05;100210.00;;;11.19;81.26
46598;BME280;32318;48.858;8.252;2023-12-29T12:16:06;100205.69;;;11.18;81.35
46598;BME280;32318;48.858;8.252;2023-12-29T12:24:07;100205.84;;;11.24;81.22
46598;BME280;32318;48.858;8.252;2023-12-29T12:32:10;100201.16;;;11.35;80.64
46598;BME280;32318;48.858;8.252;2023-12-29T12:40:24;100199.66;;;11.32;80.37
46598;BME280;32318;48.858;8.252;2023-12-29T12:48:39;100196.81;;;11.25;80.74
46598;BME280;32318;48.858;8.252;2023-12-29T12:56:42;100202.66;;;11.29;79.91
46598;BME280;32318;48.858;8.252;2023-12-29T13:04:43;100211.50;;;11.38;77.60
46598;BME280;32318;48.858;8.252;2023-12-29T13:12:52;100219.00;;;11.42;77.30
46598;BME280;32318;48.858;8.252;2023-12-29T13:20:52;100219.16;;;11.41;71.93
46598;BME280;32318;48.858;8.252;2023-12-29T13:28:53;100211.16;;;11.41;71.99
46598;BME280;32318;48.858;8.252;2023-12-29T13:37:02;100208.31;;;11.42;72.19
46598;BME280;32318;48.858;8.252;2023-12-29T13:45:08;100206.84;;;11.40;71.51
46598;BME280;32318;48.858;8.252;2023-12-29T13:53:15;100204.81;;;11.34;68.63
46598;BME280;32318;48.858;8.252;2023-12-29T14:01:16;100201.66;;;11.30;68.20
46598;BME280;32318;48.858;8.252;2023-12-29T14:09:16;100204.16;;;11.23;68.66
46598;BME280;32318;48.858;8.252;2023-12-29T14:17:24;100210.69;;;11.12;68.01
46598;BME280;32318;48.858;8.252;2023-12-29T14:25:24;100214.22;;;11.05;68.07
46598;BME280;32318;48.858;8.252;2023-12-29T14:33:25;100221.38;;;10.96;68.75
46598;BME280;32318;48.858;8.252;2023-12-29T14:41:26;100219.72;;;10.95;70.06
46598;BME280;32318;48.858;8.252;2023-12-29T14:49:26;100230.25;;;10.96;70.11
46598;BME280;32318;48.858;8.252;2023-12-29T14:57:26;100223.56;;;10.92;69.30
46598;BME280;32318;48.858;8.252;2023-12-29T15:05:27;100234.44;;;10.91;66.84
46598;BME280;32318;48.858;8.252;2023-12-29T15:13:27;100233.75;;;10.97;69.26
46598;BME280;32318;48.858;8.252;2023-12-29T15:21:29;100224.75;;;10.90;67.09
46598;BME280;32318;48.858;8.252;2023-12-29T15:29:29;100219.22;;;10.83;66.02
46598;BME280;32318;48.858;8.252;2023-12-29T15:37:31;100218.72;;;10.79;66.97
46598;BME280;32318;48.858;8.252;2023-12-29T15:45:32;100212.03;;;10.75;65.87
46598;BME280;32318;48.858;8.252;2023-12-29T15:53:32;100203.69;;;10.70;65.96
46598;BME280;32318;48.858;8.252;2023-12-29T16:01:32;100217.03;;;10.70;67.04
46598;BME280;32318;48.858;8.252;2023-12-29T16:09:32;100196.69;;;10.69;67.27
46598;BME280;32318;48.858;8.252;2023-12-29T16:17:36;100188.66;;;10.61;65.01
46598;BME280;32318;48.858;8.252;2023-12-29T16:25:36;100195.34;;;10.57;65.98
46598;BME280;32318;48.858;8.252;2023-12-29T16:33:36;100190.66;;;10.50;65.83
46598;BME280;32318;48.858;8.252;2023-12-29T16:41:40;100189.59;;;10.35;66.26
46598;BME280;32318;48.858;8.252;2023-12-29T16:49:43;100193.56;;;10.14;66.55
46598;BME280;32318;48.858;8.252;2023-12-29T16:57:44;100202.38;;;10.07;66.51
46598;BME280;32318;48.858;8.252;2023-12-29T17:05:44;100208.88;;;10.04;67.31
46598;BME280;32318;48.858;8.252;2023-12-29T17:13:45;100210.19;;;10.08;66.56
46598;BME280;32318;48.858;8.252;2023-12-29T17:21:45;100202.88;;;10.10;66.25
46598;BME280;32318;48.858;8.252;2023-12-29T17:29:45;100197.22;;;10.13;66.54
46598;BME280;32318;48.858;8.252;2023-12-29T17:37:47;100209.56;;;10.14;67.02
46598;BME280;32318;48.858;8.252;2023-12-29T17:45:48;100205.53;;;10.10;67.85
46598;BME280;32318;48.858;8.252;2023-12-29T17:53:48;100206.38;;;10.11;68.73
46598;BME280;32318;48.858;8.252;2023-12-29T18:01:49;100215.50;;;10.00;68.36
46598;BME280;32318;48.858;8.252;2023-12-29T18:09:49;100216.50;;;9.99;68.78
46598;BME280;32318;48.858;8.252;2023-12-29T18:17:49;100229.84;;;9.99;69.37
46598;BME280;32318;48.858;8.252;2023-12-29T18:25:50;100236.69;;;10.01;69.65
46598;BME280;32318;48.858;8.252;2023-12-29T18:33:50;100214.53;;;10.01;69.33
46598;BME280;32318;48.858;8.252;2023-12-29T18:41:50;100225.88;;;10.03;69.23
46598;BME280;32318;48.858;8.252;2023-12-29T18:49:51;100197.84;;;10.07;69.94
46598;BME280;32318;48.858;8.252;2023-12-29T18:57:51;100197.34;;;10.03;69.43
46598;BME280;32318;48.858;8.252;2023-12-29T19:05:54;100193.19;;;10.01;67.58
46598;BME280;32318;48.858;8.252;2023-12-29T19:13:54;100170.81;;;9.94;67.57
46598;BME280;32318;48.858;8.252;2023-12-29T19:21:56;100167.84;;;9.97;67.21
46598;BME280;32318;48.858;8.252;2023-12-29T19:29:56;100174.69;;;9.99;67.94
46598;BME280;32318;48.858;8.252;2023-12-29T19:37:57;100169.69;;;10.04;68.34
46598;BME280;32318;48.858;8.252;2023-12-29T19:46:01;100172.34;;;10.04;68.39
46598;BME280;32318;48.858;8.252;2023-12-29T19:54:02;100177.84;;;10.03;68.30
46598;BME280;32318;48.858;8.252;2023-12-29T20:02:02;100183.31;;;9.93;69.08
46598;BME280;32318;48.858;8.252;2023-12-29T20:10:12;100195.47;;;9.87;69.37
46598;BME280;32318;48.858;8.252;2023-12-29T20:18:13;100202.41;;;9.80;69.21
46598;BME280;32318;48.858;8.252;2023-12-29T20:26:18;100201.91;;;9.77;69.71
46598;BME280;32318;48.858;8.252;2023-12-29T20:34:19;100212.41;;;9.70;69.57
46598;BME280;32318;48.858;8.252;2023-12-29T20:42:19;100203.19;;;9.64;68.99
46598;BME280;32318;48.858;8.252;2023-12-29T20:50:19;100207.03;;;9.62;68.87
46598;BME280;32318;48.858;8.252;2023-12-29T20:58:20;100208.03;;;9.61;68.90
46598;BME280;32318;48.858;8.252;2023-12-29T21:06:26;100208.31;;;9.57;68.85
46598;BME280;32318;48.858;8.252;2023-12-29T21:14:31;100199.81;;;9.54;68.99
46598;BME280;32318;48.858;8.252;2023-12-29T21:22:32;100203.63;;;9.51;69.63
46598;BME280;32318;48.858;8.252;2023-12-29T21:30:36;100196.81;;;9.49;69.83
46598;BME280;32318;48.858;8.252;2023-12-29T21:38:36;100198.31;;;9.51;70.17
46598;BME280;32318;48.858;8.252;2023-12-29T21:46:40;100213.66;;;9.57;70.70
46598;BME280;32318;48.858;8.252;2023-12-29T21:54:41;100210.00;;;9.58;71.41
46598;BME280;32318;48.858;8.252;2023-12-29T22:02:44;100202.69;;;9.61;73.05
46598;BME280;32318;48.858;8.252;2023-12-29T22:10:48;100213.66;;;9.57;73.92
46598;BME280;32318;48.858;8.252;2023-12-29T22:18:48;100215.97;;;9.52;74.40
46598;BME280;32318;48.858;8.252;2023-12-29T22:26:48;100208.63;;;9.54;75.88
46598;BME280;32318;48.858;8.252;2023-12-29T22:34:51;100207.97;;;9.52;77.19
46598;BME280;32318;48.858;8.252;2023-12-29T22:42:52;100187.13;;;9.48;76.88
46598;BME280;32318;48.858;8.252;2023-12-29T22:50:52;100192.94;;;9.43;77.58
46598;BME280;32318;48.858;8.252;2023-12-29T22:58:52;100190.25;;;9.43;78.60
46598;BME280;32318;48.858;8.252;2023-12-29T23:06:55;100189.22;;;9.36;78.81
46598;BME280;32318;48.858;8.252;2023-12-29T23:14:55;100184.03;;;9.34;79.21
46598;BME280;32318;48.858;8.252;2023-12-29T23:22:56;100162.88;;;9.33;79.29
46598;BME280;32318;48.858;8.252;2023-12-29T23:30:56;100172.19;;;9.29;78.10
46598;BME280;32318;48.858;8.252;2023-12-29T23:38:56;100183.16;;;9.25;78.67
46598;BME280;32318;48.858;8.252;2023-12-29T23:46:56;100208.13;;;9.24;77.98
46598;BME280;32318;48.858;8.252;2023-12-29T23:55:00;100200.81;;;9.26;77.89
